createdAt,value
2017-09-22T00:01:58.813Z,97215.14
2017-09-22T00:04:25.416Z,97217.23
2017-09-22T00:06:51.883Z,97208.07
2017-09-22T00:09:19.307Z,97219.05
2017-09-22T00:11:47.940Z,97218.08
2017-09-22T00:14:15.413Z,97222.23
2017-09-22T00:16:43.052Z,97224.53
2017-09-22T00:31:27.848Z,97220.88
2017-09-22T00:33:54.576Z,97218.66
2017-09-22T00:36:21.051Z,97222.39
2017-09-22T00:38:47.674Z,97215.07
2017-09-22T00:41:14.162Z,97218.37
2017-09-22T00:43:41.101Z,97219.17
2017-09-22T00:46:08.401Z,97218.78
2017-09-22T00:48:35.223Z,97217.23
2017-09-22T00:51:01.883Z,97212.78
2017-09-22T00:53:28.464Z,97213.54
2017-09-22T00:55:56.936Z,97219.97
2017-09-22T00:58:23.547Z,97217.80
2017-09-22T01:01:13.946Z,97223.93
2017-09-22T01:03:42.519Z,97226.52
2017-09-22T01:06:09.035Z,97229.97
2017-09-22T01:08:35.571Z,97226.55
2017-09-22T01:11:02.007Z,97224.02
2017-09-22T01:13:28.763Z,97227.45
2017-09-22T01:15:55.448Z,97220.83
2017-09-22T01:18:21.936Z,97219.91
2017-09-22T01:20:49.754Z,97226.50
2017-09-22T01:23:18.319Z,97221.74
2017-09-22T01:28:44.719Z,97223.36
2017-09-22T01:31:11.348Z,97216.69
2017-09-22T01:33:38.259Z,97215.65
2017-09-22T01:36:05.973Z,97220.64
2017-09-22T01:38:33.309Z,97219.50
2017-09-22T01:41:00.175Z,97208.11
2017-09-22T01:43:26.724Z,97209.75
2017-09-22T01:45:53.356Z,97174.60
2017-09-22T01:48:20.009Z,97211.17
2017-09-22T01:50:46.800Z,97209.84
2017-09-22T01:53:13.484Z,97210.14
2017-09-22T01:55:42.297Z,97215.48
2017-09-22T01:58:09.664Z,97211.97
2017-09-22T02:00:44.342Z,97208.26
2017-09-22T02:03:12.244Z,97204.15
2017-09-22T02:05:39.731Z,97202.96
2017-09-22T02:08:07.450Z,97204.11
2017-09-22T02:10:34.024Z,97204.31
2017-09-22T02:13:00.921Z,97202.52
2017-09-22T02:15:28.175Z,97194.70
2017-09-22T02:20:36.011Z,97198.92
2017-09-22T02:23:02.656Z,97199.26
2017-09-22T02:25:31.217Z,97199.19
2017-09-22T02:27:57.892Z,97198.72
2017-09-22T02:30:24.728Z,97195.49
2017-09-22T02:32:51.145Z,97201.31
2017-09-22T02:35:18.520Z,97204.55
2017-09-22T02:37:45.276Z,97203.50
2017-09-22T02:40:12.064Z,97207.83
2017-09-22T02:42:40.101Z,97213.71
2017-09-22T02:48:00.118Z,97203.59
2017-09-22T02:50:26.900Z,97210.96
2017-09-22T02:52:54.266Z,97215.62
2017-09-22T02:55:23.884Z,97212.58
2017-09-22T02:57:50.306Z,97216.17
2017-09-22T03:00:17.247Z,97215.20
2017-09-22T03:02:45.805Z,97210.56
2017-09-22T03:05:12.448Z,97214.30
2017-09-22T03:07:40.004Z,97206.22
2017-09-22T03:10:06.684Z,97209.03
2017-09-22T03:12:33.371Z,97208.05
2017-09-22T03:15:01.148Z,97214.50
2017-09-22T03:17:27.860Z,97215.67
2017-09-22T03:19:54.808Z,97209.55
2017-09-22T03:22:24.656Z,97208.69
2017-09-22T03:24:52.481Z,97207.62
2017-09-22T03:27:18.848Z,97208.98
2017-09-22T03:29:46.588Z,97199.39
2017-09-22T03:35:10.208Z,97205.95
2017-09-22T03:37:37.728Z,97211.13
2017-09-22T03:40:06.692Z,97210.17
2017-09-22T03:42:34.582Z,97204.39
2017-09-22T03:45:01.242Z,97209.84
2017-09-22T03:47:28.700Z,97202.48
2017-09-22T03:49:55.277Z,97194.60
2017-09-22T03:52:22.987Z,97197.91
2017-09-22T03:54:49.552Z,97198.00
2017-09-22T03:57:17.020Z,97197.70
2017-09-22T03:59:44.639Z,97196.27
2017-09-22T04:02:14.155Z,97198.80
2017-09-22T04:04:41.560Z,97205.83
2017-09-22T04:07:08.388Z,97205.41
2017-09-22T04:12:30.120Z,97213.50
2017-09-22T04:14:56.887Z,97209.42
2017-09-22T04:17:23.348Z,97209.82
2017-09-22T04:19:49.975Z,97211.29
2017-09-22T04:22:18.719Z,97207.62
2017-09-22T04:24:45.429Z,97213.20
2017-09-22T04:27:12.079Z,97211.42
2017-09-22T04:29:39.507Z,97212.33
2017-09-22T04:32:05.953Z,97201.50
2017-09-22T04:34:33.556Z,97203.05
2017-09-22T04:37:00.304Z,97205.11
2017-09-22T04:39:26.755Z,97202.45
2017-09-22T04:41:53.367Z,97203.77
2017-09-22T04:44:19.913Z,97203.95
2017-09-22T04:46:46.428Z,97205.62
2017-09-22T04:49:13.175Z,97206.59
2017-09-22T05:03:09.878Z,97221.61
2017-09-22T05:05:36.552Z,97228.48
2017-09-22T05:08:03.169Z,97231.16
2017-09-22T05:10:29.704Z,97231.46
2017-09-22T05:12:56.209Z,97235.26
2017-09-22T05:15:23.647Z,97236.66
2017-09-22T05:17:50.159Z,97239.03
2017-09-22T05:20:17.232Z,97240.98
2017-09-22T05:22:44.192Z,97243.33
2017-09-22T05:25:11.645Z,97233.42
2017-09-22T05:27:39.435Z,97238.41
2017-09-22T05:30:06.025Z,97244.83
2017-09-22T05:32:32.535Z,97243.89
2017-09-22T05:34:59.099Z,97251.91
2017-09-22T05:37:25.677Z,97239.89
2017-09-22T05:39:52.027Z,97251.48
2017-09-22T05:42:18.844Z,97251.81
2017-09-22T05:44:45.510Z,97252.77
2017-09-22T05:47:14.242Z,97245.63
2017-09-22T05:49:43.064Z,97257.68
2017-09-22T05:52:12.560Z,97255.79
2017-09-22T05:54:50.634Z,97250.91
2017-09-22T05:57:17.301Z,97262.22
2017-09-22T05:59:44.740Z,97260.39
2017-09-22T06:02:12.291Z,97258.64
2017-09-22T06:04:39.028Z,97251.52
2017-09-22T06:07:05.631Z,97255.58
2017-09-22T06:09:32.379Z,97263.30
2017-09-22T06:11:58.956Z,97258.20
2017-09-22T06:14:25.651Z,97257.64
2017-09-22T06:16:52.247Z,97266.70
2017-09-22T06:19:19.777Z,97260.62
2017-09-22T06:21:46.272Z,97274.19
2017-09-22T06:24:12.846Z,97270.92
2017-09-22T06:26:40.321Z,97272.20
2017-09-22T06:29:07.193Z,97275.36
2017-09-22T06:31:33.635Z,97281.20
2017-09-22T06:34:00.266Z,97281.37
2017-09-22T06:36:27.095Z,97281.33
2017-09-22T06:38:55.616Z,97284.52
2017-09-22T06:41:25.791Z,97286.13
2017-09-22T06:43:52.524Z,97291.23
2017-09-22T06:46:19.050Z,97312.17
2017-09-22T06:48:46.524Z,97290.20
2017-09-22T06:51:16.299Z,97293.98
2017-09-22T06:53:44.947Z,97294.78
2017-09-22T06:56:11.801Z,97287.00
2017-09-22T06:58:38.495Z,97294.94
2017-09-22T07:01:31.188Z,97292.29
2017-09-22T07:03:57.571Z,97295.95
2017-09-22T07:06:25.454Z,97298.30
2017-09-22T07:14:31.804Z,97304.83
2017-09-22T07:27:56.516Z,97306.39
2017-09-22T07:30:24.007Z,97307.06
2017-09-22T08:17:50.207Z,97324.70
2017-09-22T08:20:16.951Z,97326.30
2017-09-22T08:22:44.440Z,97327.09
2017-09-22T08:25:11.075Z,97320.92
2017-09-22T08:27:37.645Z,97319.67
2017-09-22T08:30:14.544Z,97246.34
2017-09-22T08:32:41.254Z,97324.70
2017-09-22T08:38:21.552Z,97318.63
2017-09-22T08:40:52.380Z,97325.84
2017-09-22T08:43:19.625Z,97322.27
2017-09-22T08:45:48.128Z,97319.89
2017-09-22T08:48:15.339Z,97314.48
2017-09-22T08:50:42.385Z,97315.02
2017-09-22T08:56:04.141Z,97313.98
2017-09-22T08:58:30.800Z,97305.66
2017-09-22T09:00:57.593Z,97262.83
2017-09-22T09:03:24.063Z,97309.68
2017-09-22T09:08:25.937Z,97300.66
2017-09-22T09:10:52.544Z,97294.08
2017-09-22T09:13:19.244Z,97284.62
2017-09-22T09:15:46.762Z,97301.07
2017-09-22T09:18:13.408Z,97290.34
2017-09-22T09:20:40.700Z,97299.95
2017-09-22T09:23:07.814Z,97293.56
2017-09-22T09:25:35.213Z,97295.72
2017-09-22T09:28:01.681Z,97301.63
2017-09-22T09:30:28.435Z,97296.17
2017-09-22T09:32:55.352Z,97304.42
2017-09-22T09:35:22.596Z,97299.11
2017-09-22T09:37:49.391Z,97293.15
2017-09-22T09:40:17.059Z,97293.77
2017-09-22T09:42:44.449Z,97295.47
2017-09-22T09:45:20.409Z,97298.96
2017-09-22T09:47:48.524Z,97294.73
2017-09-22T09:50:15.460Z,97292.60
2017-09-22T09:52:49.220Z,97297.14
2017-09-22T09:55:16.980Z,97295.17
2017-09-22T09:57:43.780Z,97299.77
2017-09-22T10:00:10.821Z,97283.39
2017-09-22T10:02:37.732Z,97297.62
2017-09-22T10:41:18.492Z,97261.11
2017-09-22T10:43:45.940Z,97266.10
2017-09-22T10:46:13.531Z,97265.48
2017-09-22T10:51:35.592Z,97259.56
2017-09-22T10:54:02.235Z,97267.89
2017-09-22T10:56:28.727Z,97261.30
2017-09-22T10:59:11.773Z,97262.61
2017-09-22T11:01:39.178Z,97260.43
2017-09-22T11:04:05.883Z,97267.02
2017-09-22T11:06:33.671Z,97267.08
2017-09-22T11:09:00.077Z,97264.10
2017-09-22T11:11:26.664Z,97266.80
2017-09-22T11:13:53.236Z,97264.27
2017-09-22T11:16:20.003Z,97265.36
2017-09-22T11:27:44.423Z,97258.21
2017-09-22T11:30:11.118Z,97241.89
2017-09-22T11:32:39.239Z,97253.11
2017-09-22T11:35:06.336Z,97251.80
2017-09-22T11:37:33.077Z,97253.14
2017-09-22T11:40:10.043Z,97248.77
2017-09-22T11:42:36.812Z,97247.27
2017-09-22T11:45:03.456Z,97248.58
2017-09-22T11:47:30.965Z,97240.48
2017-09-22T11:50:08.278Z,97243.81
2017-09-22T11:52:36.048Z,97240.81
2017-09-22T11:55:02.517Z,97240.36
2017-09-22T11:57:29.995Z,97238.34
2017-09-22T11:59:56.667Z,97238.28
2017-09-22T12:02:26.425Z,97232.92
2017-09-22T12:04:56.775Z,97234.63
2017-09-22T12:07:24.096Z,97233.20
2017-09-22T12:09:52.592Z,97235.00
2017-09-22T12:12:19.941Z,97239.64
2017-09-22T12:17:42.477Z,97237.66
2017-09-22T12:20:09.000Z,97231.33
2017-09-22T12:22:35.597Z,97231.69
2017-09-22T12:27:56.247Z,97234.11
2017-09-22T12:30:22.813Z,97237.53
2017-09-22T12:32:49.401Z,97236.17
2017-09-22T12:35:15.835Z,97234.67
2017-09-22T12:37:42.568Z,97233.38
2017-09-22T12:40:09.229Z,97232.66
2017-09-22T12:42:35.813Z,97229.00
2017-09-22T12:45:06.332Z,97232.30
2017-09-22T12:47:33.776Z,97226.14
2017-09-22T12:50:02.197Z,97223.25
2017-09-22T12:52:32.001Z,97223.67
2017-09-22T12:54:58.877Z,97222.81
2017-09-22T12:57:40.955Z,97226.17
2017-09-22T13:00:07.656Z,97221.81
2017-09-22T13:02:34.100Z,97217.66
2017-09-22T13:05:01.420Z,97223.52
2017-09-22T13:07:27.964Z,97212.67
2017-09-22T13:09:56.452Z,97216.89
2017-09-22T13:12:23.203Z,97219.45
2017-09-22T13:14:50.593Z,97220.02
2017-09-22T13:17:17.087Z,97219.95
2017-09-22T13:19:55.408Z,97220.25
2017-09-22T13:22:22.984Z,97225.91
2017-09-22T13:24:49.640Z,97223.26
2017-09-22T13:27:16.080Z,97221.34
2017-09-22T13:29:42.817Z,97227.01
2017-09-22T13:32:17.695Z,97227.42
2017-09-22T13:34:44.493Z,97221.78
2017-09-22T13:42:07.984Z,97209.13
2017-09-22T13:44:35.420Z,97206.05
2017-09-22T13:47:02.872Z,97204.55
2017-09-22T13:49:29.385Z,97202.97
2017-09-22T13:51:55.949Z,97206.52
2017-09-22T14:05:56.310Z,97203.87
2017-09-22T14:08:23.044Z,97205.97
2017-09-22T14:10:49.592Z,97199.80
2017-09-22T14:13:17.207Z,97196.26
2017-09-22T14:24:25.829Z,97200.84
2017-09-22T14:26:53.639Z,97205.56
2017-09-22T14:29:21.135Z,97202.45
2017-09-22T14:31:47.871Z,97199.36
2017-09-22T14:34:16.723Z,97196.58
2017-09-22T14:36:43.758Z,97200.67
2017-09-22T14:42:04.436Z,97201.55
2017-09-22T14:44:33.915Z,97200.68
2017-09-22T14:47:00.678Z,97202.02
2017-09-22T14:52:22.044Z,97202.63
2017-09-22T14:54:49.110Z,97201.77
2017-09-22T14:57:15.922Z,97200.55
2017-09-22T14:59:42.476Z,97200.55
2017-09-22T15:02:08.988Z,97198.48
2017-09-22T15:04:35.607Z,97191.00
2017-09-22T15:07:19.764Z,97193.52
2017-09-22T15:09:46.401Z,97198.96
2017-09-22T15:12:12.998Z,97200.67
2017-09-22T15:14:39.994Z,97206.52
2017-09-22T15:17:07.790Z,97210.23
2017-09-22T15:19:35.285Z,97206.77
2017-09-22T15:24:58.220Z,97210.89
2017-09-22T15:27:24.636Z,97210.56
2017-09-22T15:29:52.972Z,97211.93
2017-09-22T15:32:19.636Z,97211.16
2017-09-22T15:34:46.492Z,97206.41
2017-09-22T15:37:13.155Z,97209.87
2017-09-22T15:39:39.866Z,97210.87
2017-09-22T15:42:06.349Z,97210.72
2017-09-22T15:44:32.965Z,97209.60
2017-09-22T15:46:59.397Z,97211.78
2017-09-22T15:49:26.060Z,97205.73
2017-09-22T15:51:52.460Z,97201.90
2017-09-22T15:54:23.307Z,97206.15
2017-09-22T15:56:50.031Z,97215.42
2017-09-22T16:02:11.079Z,97211.05
2017-09-22T16:04:37.855Z,97210.59
2017-09-22T16:10:04.172Z,97209.41
2017-09-22T16:12:30.899Z,97210.63
2017-09-22T16:14:57.428Z,97217.36
2017-09-22T16:17:23.958Z,97209.28
2017-09-22T16:24:19.259Z,97207.39
2017-09-22T16:26:46.808Z,97202.41
2017-09-22T16:29:13.331Z,97208.17
2017-09-22T16:36:07.108Z,97215.45
2017-09-22T16:38:33.643Z,97215.20
2017-09-22T16:41:00.972Z,97220.63
2017-09-22T16:43:28.312Z,97212.13
2017-09-22T16:45:57.664Z,97215.94
2017-09-22T16:48:24.340Z,97214.17
2017-09-22T16:50:53.896Z,97218.30
2017-09-22T16:53:23.393Z,97214.31
2017-09-22T16:55:50.773Z,97219.09
2017-09-22T16:58:18.268Z,97216.02
2017-09-22T17:00:44.717Z,97219.27
2017-09-22T17:03:12.285Z,97226.70
2017-09-22T17:05:39.940Z,97227.13
2017-09-22T17:08:06.544Z,97227.62
2017-09-22T17:10:33.364Z,97228.53
2017-09-22T17:12:59.893Z,97223.39
2017-09-22T17:15:26.365Z,97227.33
2017-09-22T17:29:31.476Z,97234.77
2017-09-22T17:32:00.480Z,97248.95
2017-09-22T17:34:26.999Z,97248.22
2017-09-22T17:36:53.595Z,97252.08
2017-09-22T17:39:20.076Z,97245.32
2017-09-22T17:41:47.564Z,97252.19
2017-09-22T17:59:45.767Z,97274.30
2017-09-22T18:02:12.352Z,97273.87
2017-09-22T18:04:38.830Z,97278.03
2017-09-22T18:09:59.685Z,97285.48
2017-09-22T18:12:26.266Z,97286.39
2017-09-22T18:17:51.717Z,97292.92
2017-09-22T18:20:20.760Z,97298.64
2017-09-22T18:22:47.500Z,97298.87
2017-09-22T18:28:25.891Z,97306.42
2017-09-22T18:33:32.644Z,97308.77
2017-09-22T18:38:54.175Z,97311.77
2017-09-22T18:41:21.642Z,97310.16
2017-09-22T18:43:48.188Z,97300.36
2017-09-22T18:46:15.609Z,97311.09
2017-09-22T18:48:42.176Z,97313.67
2017-09-22T18:51:10.597Z,97317.69
2017-09-22T18:53:37.380Z,97321.39
2017-09-22T18:56:03.919Z,97315.99
2017-09-22T18:58:30.443Z,97320.27
2017-09-22T19:00:57.016Z,97315.45
2017-09-22T19:03:23.464Z,97314.08
2017-09-22T19:05:50.039Z,97311.88
2017-09-22T19:08:16.751Z,97314.89
2017-09-22T19:10:50.504Z,97318.46
2017-09-22T19:13:17.394Z,97323.63
2017-09-22T19:15:44.256Z,97321.14
2017-09-22T19:21:32.644Z,97325.89
2017-09-22T19:24:09.710Z,97322.91
2017-09-22T19:26:36.377Z,97330.75
2017-09-22T19:29:02.882Z,97332.55
2017-09-22T19:31:29.547Z,97331.45
2017-09-22T19:33:56.315Z,97334.06
2017-09-22T19:36:22.825Z,97329.34
2017-09-22T19:38:49.352Z,97329.12
2017-09-22T19:41:15.934Z,97330.02
2017-09-22T19:43:42.422Z,97337.14
2017-09-22T19:46:09.009Z,97336.88
2017-09-22T19:48:35.555Z,97338.23
2017-09-22T19:53:56.540Z,97344.43
2017-09-22T19:56:24.343Z,97340.69
2017-09-22T19:58:51.702Z,97335.34
2017-09-22T20:01:18.284Z,97327.88
2017-09-22T20:03:46.416Z,97335.94
2017-09-22T20:06:13.556Z,97337.56
2017-09-22T20:08:39.968Z,97334.81
2017-09-22T20:11:06.531Z,97341.98
2017-09-22T20:13:33.221Z,97340.53
2017-09-22T20:16:00.659Z,97340.28
2017-09-22T20:18:28.108Z,97347.89
2017-09-22T20:26:22.337Z,97359.33
2017-09-22T20:31:44.878Z,97357.81
2017-09-22T20:34:12.386Z,97362.66
2017-09-22T20:36:39.804Z,97363.99
2017-09-22T20:39:06.404Z,97362.56
2017-09-22T20:41:32.890Z,97365.43
2017-09-22T20:44:00.348Z,97372.16
2017-09-22T20:46:27.840Z,97368.41
2017-09-22T20:48:56.303Z,97373.70
2017-09-22T20:51:23.912Z,97378.66
2017-09-22T20:53:50.560Z,97376.96
2017-09-22T20:56:17.000Z,97377.49
2017-09-22T21:01:40.500Z,97375.71
2017-09-22T21:04:08.055Z,97375.70
2017-09-22T21:06:35.687Z,97375.89
2017-09-22T21:09:02.352Z,97329.12
2017-09-22T21:18:28.748Z,97380.38
2017-09-22T21:20:58.376Z,97380.86
2017-09-22T21:23:42.406Z,97381.68
2017-09-22T21:26:09.852Z,97387.61
2017-09-22T21:28:39.525Z,97385.83
2017-09-22T21:31:08.150Z,97382.64
2017-09-22T21:33:35.654Z,97386.05
2017-09-22T21:36:02.340Z,97378.73
2017-09-22T21:38:29.680Z,97390.23
2017-09-22T21:40:56.117Z,97382.09
2017-09-22T21:43:22.745Z,97389.84
2017-09-22T21:49:20.332Z,97397.05
2017-09-22T21:51:46.952Z,97393.72
2017-09-22T21:54:13.608Z,97403.50
2017-09-22T21:56:40.144Z,97404.27
2017-09-22T21:59:06.899Z,97395.94
2017-09-22T22:01:34.252Z,97405.52
2017-09-22T22:04:06.831Z,97401.53
2017-09-22T22:06:39.671Z,97402.33
2017-09-22T22:09:06.568Z,97405.94
2017-09-22T22:11:34.038Z,97405.56
2017-09-22T22:14:03.867Z,97409.52
2017-09-22T22:16:31.664Z,97410.73
2017-09-22T22:34:30.796Z,97410.77
2017-09-22T22:37:05.224Z,97412.69
2017-09-22T22:39:32.255Z,97417.17
2017-09-22T22:41:59.647Z,97418.53
2017-09-22T22:44:27.525Z,97418.59
2017-09-22T22:46:54.299Z,97417.87
2017-09-22T22:49:21.055Z,97425.67
2017-09-22T22:51:48.004Z,97422.88
2017-09-22T22:54:15.328Z,97425.40
2017-09-22T22:56:42.016Z,97431.88
2017-09-22T22:59:15.904Z,97424.10
2017-09-22T23:01:42.619Z,97428.25
2017-09-22T23:04:10.692Z,97420.66
2017-09-22T23:06:37.356Z,97423.92
2017-09-22T23:09:04.108Z,97429.77
2017-09-22T23:11:31.564Z,97421.43
2017-09-22T23:16:54.863Z,97422.33
2017-09-22T23:19:21.757Z,97431.89
2017-09-22T23:21:48.658Z,97435.44
2017-09-22T23:24:15.335Z,97433.42
2017-09-22T23:26:42.076Z,97433.48
2017-09-22T23:29:09.636Z,97416.73
2017-09-22T23:31:36.409Z,97441.06
2017-09-22T23:34:03.213Z,97434.53
2017-09-22T23:36:29.954Z,97437.91
2017-09-22T23:39:06.680Z,97437.30
2017-09-22T23:41:33.192Z,97440.19
2017-09-22T23:44:01.849Z,97441.45
2017-09-22T23:49:19.798Z,97444.01
2017-09-22T23:54:44.568Z,97449.52
2017-09-22T23:57:11.528Z,97449.52
2017-09-22T23:59:38.035Z,97452.78
